sensor_id;sensor_type;location;lat;lon;timestamp;temperature;humidity
5276;DHT22;2661;50.786;12.728;2023-09-30T00:00:02;17.80;1.00
5276;DHT22;2661;50.786;12.728;2023-09-30T00:02:31;17.90;1.00
5276;DHT22;2661;50.786;12.728;2023-09-30T00:04:58;17.90;1.00
5276;DHT22;2661;50.786;12.728;2023-09-30T00:07:25;17.80;1.00
5276;DHT22;2661;50.786;12.728;2023-09-30T00:09:53;17.60;1.00
5276;DHT22;2661;50.786;12.728;2023-09-30T00:12:19;17.50;1.00
5276;DHT22;2661;50.786;12.728;2023-09-30T00:14:47;17.30;1.00
5276;DHT22;2661;50.786;12.728;2023-09-30T00:17:14;17.00;1.00
5276;DHT22;2661;50.786;12.728;2023-09-30T00:19:41;16.90;1.00
5276;DHT22;2661;50.786;12.728;2023-09-30T00:22:08;16.80;1.00
5276;DHT22;2661;50.786;12.728;2023-09-30T00:24:35;16.60;1.00
5276;DHT22;2661;50.786;12.728;2023-09-30T00:27:02;16.50;1.00
5276;DHT22;2661;50.786;12.728;2023-09-30T00:29:28;16.40;1.00
5276;DHT22;2661;50.786;12.728;2023-09-30T00:31:55;16.40;1.00
5276;DHT22;2661;50.786;12.728;2023-09-30T00:34:22;16.30;1.00
5276;DHT22;2661;50.786;12.728;2023-09-30T00:36:49;16.30;1.00
5276;DHT22;2661;50.786;12.728;2023-09-30T00:39:15;16.30;1.00
5276;DHT22;2661;50.786;12.728;2023-09-30T00:41:42;16.20;1.00
5276;DHT22;2661;50.786;12.728;2023-09-30T00:44:09;16.10;1.00
5276;DHT22;2661;50.786;12.728;2023-09-30T00:46:37;16.00;1.00
5276;DHT22;2661;50.786;12.728;2023-09-30T00:49:04;16.00;1.00
5276;DHT22;2661;50.786;12.728;2023-09-30T00:51:31;15.90;1.00
5276;DHT22;2661;50.786;12.728;2023-09-30T00:53:59;15.90;1.00
5276;DHT22;2661;50.786;12.728;2023-09-30T00:56:27;15.80;1.00
5276;DHT22;2661;50.786;12.728;2023-09-30T00:58:54;15.60;1.00
5276;DHT22;2661;50.786;12.728;2023-09-30T01:01:22;15.60;1.00
5276;DHT22;2661;50.786;12.728;2023-09-30T01:03:49;15.50;1.00
5276;DHT22;2661;50.786;12.728;2023-09-30T01:06:16;15.50;1.00
5276;DHT22;2661;50.786;12.728;2023-09-30T01:08:43;15.40;1.00
5276;DHT22;2661;50.786;12.728;2023-09-30T01:11:10;15.40;1.00
5276;DHT22;2661;50.786;12.728;2023-09-30T01:13:37;15.30;1.00
5276;DHT22;2661;50.786;12.728;2023-09-30T01:18:31;15.00;1.00
5276;DHT22;2661;50.786;12.728;2023-09-30T01:21:03;15.00;1.00
5276;DHT22;2661;50.786;12.728;2023-09-30T01:23:33;14.90;1.00
5276;DHT22;2661;50.786;12.728;2023-09-30T01:26:09;14.80;1.00
5276;DHT22;2661;50.786;12.728;2023-09-30T01:28:35;14.80;97.80
5276;DHT22;2661;50.786;12.728;2023-09-30T01:31:04;14.80;99.90
5276;DHT22;2661;50.786;12.728;2023-09-30T01:33:31;14.70;72.40
5276;DHT22;2661;50.786;12.728;2023-09-30T01:35:59;14.70;99.90
5276;DHT22;2661;50.786;12.728;2023-09-30T01:38:26;14.70;99.90
5276;DHT22;2661;50.786;12.728;2023-09-30T01:40:52;14.70;99.90
5276;DHT22;2661;50.786;12.728;2023-09-30T01:43:23;14.70;99.90
5276;DHT22;2661;50.786;12.728;2023-09-30T01:45:50;14.70;1.00
5276;DHT22;2661;50.786;12.728;2023-09-30T01:48:17;14.70;1.00
5276;DHT22;2661;50.786;12.728;2023-09-30T01:50:43;14.70;1.00
5276;DHT22;2661;50.786;12.728;2023-09-30T01:53:11;14.70;1.00
5276;DHT22;2661;50.786;12.728;2023-09-30T01:55:37;14.70;1.00
5276;DHT22;2661;50.786;12.728;2023-09-30T01:58:04;14.70;99.90
5276;DHT22;2661;50.786;12.728;2023-09-30T02:00:31;14.60;1.00
5276;DHT22;2661;50.786;12.728;2023-09-30T02:02:58;14.60;1.00
5276;DHT22;2661;50.786;12.728;2023-09-30T02:05:25;14.50;1.00
5276;DHT22;2661;50.786;12.728;2023-09-30T02:07:52;14.50;1.00
5276;DHT22;2661;50.786;12.728;2023-09-30T02:10:19;14.50;1.00
5276;DHT22;2661;50.786;12.728;2023-09-30T02:12:46;14.40;1.00
5276;DHT22;2661;50.786;12.728;2023-09-30T02:15:13;14.40;1.00
5276;DHT22;2661;50.786;12.728;2023-09-30T02:17:40;14.40;1.00
5276;DHT22;2661;50.786;12.728;2023-09-30T02:20:12;14.40;1.00
5276;DHT22;2661;50.786;12.728;2023-09-30T02:22:43;14.40;1.00
5276;DHT22;2661;50.786;12.728;2023-09-30T02:25:11;14.40;1.00
5276;DHT22;2661;50.786;12.728;2023-09-30T02:27:40;14.40;1.00
5276;DHT22;2661;50.786;12.728;2023-09-30T02:30:09;14.40;1.00
5276;DHT22;2661;50.786;12.728;2023-09-30T02:32:38;14.40;1.00
5276;DHT22;2661;50.786;12.728;2023-09-30T02:35:05;14.40;1.00
5276;DHT22;2661;50.786;12.728;2023-09-30T02:37:32;14.40;1.00
5276;DHT22;2661;50.786;12.728;2023-09-30T02:40:02;14.50;1.00
5276;DHT22;2661;50.786;12.728;2023-09-30T02:42:31;14.40;1.00
5276;DHT22;2661;50.786;12.728;2023-09-30T02:45:01;14.40;1.00
5276;DHT22;2661;50.786;12.728;2023-09-30T02:47:27;14.50;1.00
5276;DHT22;2661;50.786;12.728;2023-09-30T02:49:57;14.50;1.00
5276;DHT22;2661;50.786;12.728;2023-09-30T02:52:24;14.60;1.00
5276;DHT22;2661;50.786;12.728;2023-09-30T02:54:50;14.60;1.00
5276;DHT22;2661;50.786;12.728;2023-09-30T02:57:18;14.70;1.00
5276;DHT22;2661;50.786;12.728;2023-09-30T02:59:45;14.60;1.00
5276;DHT22;2661;50.786;12.728;2023-09-30T03:02:12;14.60;1.00
5276;DHT22;2661;50.786;12.728;2023-09-30T03:04:39;14.50;1.00
5276;DHT22;2661;50.786;12.728;2023-09-30T03:07:06;14.50;1.00
5276;DHT22;2661;50.786;12.728;2023-09-30T03:09:34;14.50;1.00
5276;DHT22;2661;50.786;12.728;2023-09-30T03:12:02;14.50;1.00
5276;DHT22;2661;50.786;12.728;2023-09-30T03:14:29;14.50;1.00
5276;DHT22;2661;50.786;12.728;2023-09-30T03:16:57;14.40;1.00
5276;DHT22;2661;50.786;12.728;2023-09-30T03:19:24;14.40;1.00
5276;DHT22;2661;50.786;12.728;2023-09-30T03:21:51;14.30;1.00
5276;DHT22;2661;50.786;12.728;2023-09-30T03:24:18;14.20;1.00
5276;DHT22;2661;50.786;12.728;2023-09-30T03:26:44;14.10;1.00
5276;DHT22;2661;50.786;12.728;2023-09-30T03:29:11;14.20;1.00
5276;DHT22;2661;50.786;12.728;2023-09-30T03:31:39;14.10;99.90
5276;DHT22;2661;50.786;12.728;2023-09-30T03:34:06;14.10;1.00
5276;DHT22;2661;50.786;12.728;2023-09-30T03:36:32;14.10;1.00
5276;DHT22;2661;50.786;12.728;2023-09-30T03:38:59;14.00;1.00
5276;DHT22;2661;50.786;12.728;2023-09-30T03:41:34;14.00;1.00
5276;DHT22;2661;50.786;12.728;2023-09-30T03:44:04;14.00;1.00
5276;DHT22;2661;50.786;12.728;2023-09-30T03:46:31;14.00;1.00
5276;DHT22;2661;50.786;12.728;2023-09-30T03:48:58;14.00;1.00
5276;DHT22;2661;50.786;12.728;2023-09-30T03:51:25;14.00;1.00
5276;DHT22;2661;50.786;12.728;2023-09-30T03:53:52;14.10;1.00
5276;DHT22;2661;50.786;12.728;2023-09-30T03:56:19;14.00;1.00
5276;DHT22;2661;50.786;12.728;2023-09-30T03:58:45;14.00;1.00
5276;DHT22;2661;50.786;12.728;2023-09-30T04:01:14;14.00;1.00
5276;DHT22;2661;50.786;12.728;2023-09-30T04:03:43;13.90;1.00
5276;DHT22;2661;50.786;12.728;2023-09-30T04:06:10;13.90;1.00
5276;DHT22;2661;50.786;12.728;2023-09-30T04:08:37;13.90;1.00
5276;DHT22;2661;50.786;12.728;2023-09-30T04:11:04;13.80;1.00
5276;DHT22;2661;50.786;12.728;2023-09-30T04:13:31;13.70;1.00
5276;DHT22;2661;50.786;12.728;2023-09-30T04:15:58;13.70;1.00
5276;DHT22;2661;50.786;12.728;2023-09-30T04:18:24;13.70;1.00
5276;DHT22;2661;50.786;12.728;2023-09-30T04:20:52;13.60;1.00
5276;DHT22;2661;50.786;12.728;2023-09-30T04:23:19;13.50;1.00
5276;DHT22;2661;50.786;12.728;2023-09-30T04:25:46;13.50;1.00
5276;DHT22;2661;50.786;12.728;2023-09-30T04:28:13;13.50;1.00
5276;DHT22;2661;50.786;12.728;2023-09-30T04:30:42;13.50;1.00
5276;DHT22;2661;50.786;12.728;2023-09-30T04:33:09;13.50;1.00
5276;DHT22;2661;50.786;12.728;2023-09-30T04:35:38;13.40;1.00
5276;DHT22;2661;50.786;12.728;2023-09-30T04:38:05;13.40;1.00
5276;DHT22;2661;50.786;12.728;2023-09-30T04:40:32;13.40;1.00
5276;DHT22;2661;50.786;12.728;2023-09-30T04:43:00;13.40;1.00
5276;DHT22;2661;50.786;12.728;2023-09-30T04:45:27;13.40;1.00
5276;DHT22;2661;50.786;12.728;2023-09-30T04:47:53;13.30;1.00
5276;DHT22;2661;50.786;12.728;2023-09-30T04:50:22;13.30;1.00
5276;DHT22;2661;50.786;12.728;2023-09-30T04:52:50;13.30;1.00
5276;DHT22;2661;50.786;12.728;2023-09-30T04:55:17;13.20;1.00
5276;DHT22;2661;50.786;12.728;2023-09-30T04:57:45;13.30;1.00
5276;DHT22;2661;50.786;12.728;2023-09-30T05:00:15;13.20;1.00
5276;DHT22;2661;50.786;12.728;2023-09-30T05:02:44;13.20;1.00
5276;DHT22;2661;50.786;12.728;2023-09-30T05:05:14;13.20;1.00
5276;DHT22;2661;50.786;12.728;2023-09-30T05:07:42;13.20;1.00
5276;DHT22;2661;50.786;12.728;2023-09-30T05:10:08;13.20;1.00
5276;DHT22;2661;50.786;12.728;2023-09-30T05:12:39;13.20;1.00
5276;DHT22;2661;50.786;12.728;2023-09-30T05:15:12;13.20;1.00
5276;DHT22;2661;50.786;12.728;2023-09-30T05:17:42;13.30;1.00
5276;DHT22;2661;50.786;12.728;2023-09-30T05:20:10;13.20;1.00
5276;DHT22;2661;50.786;12.728;2023-09-30T05:22:39;13.20;1.00
5276;DHT22;2661;50.786;12.728;2023-09-30T05:25:07;13.20;1.00
5276;DHT22;2661;50.786;12.728;2023-09-30T05:27:34;13.20;1.00
5276;DHT22;2661;50.786;12.728;2023-09-30T05:30:00;13.30;1.00
5276;DHT22;2661;50.786;12.728;2023-09-30T05:32:27;13.20;1.00
5276;DHT22;2661;50.786;12.728;2023-09-30T05:34:53;13.30;1.00
5276;DHT22;2661;50.786;12.728;2023-09-30T05:37:21;13.30;1.00
5276;DHT22;2661;50.786;12.728;2023-09-30T05:39:48;13.30;1.00
5276;DHT22;2661;50.786;12.728;2023-09-30T05:42:17;13.20;1.00
5276;DHT22;2661;50.786;12.728;2023-09-30T05:44:45;13.20;1.00
5276;DHT22;2661;50.786;12.728;2023-09-30T05:47:12;13.10;1.00
5276;DHT22;2661;50.786;12.728;2023-09-30T05:49:39;13.10;1.00
5276;DHT22;2661;50.786;12.728;2023-09-30T05:52:05;13.10;1.00
5276;DHT22;2661;50.786;12.728;2023-09-30T05:54:32;13.00;1.00
5276;DHT22;2661;50.786;12.728;2023-09-30T05:56:58;13.10;1.00
5276;DHT22;2661;50.786;12.728;2023-09-30T05:59:27;13.10;1.00
5276;DHT22;2661;50.786;12.728;2023-09-30T06:01:54;13.10;1.00
5276;DHT22;2661;50.786;12.728;2023-09-30T06:04:21;13.10;1.00
5276;DHT22;2661;50.786;12.728;2023-09-30T06:06:47;13.20;1.00
5276;DHT22;2661;50.786;12.728;2023-09-30T06:09:15;13.10;1.00
5276;DHT22;2661;50.786;12.728;2023-09-30T06:11:41;13.20;1.00
5276;DHT22;2661;50.786;12.728;2023-09-30T06:14:08;13.10;1.00
5276;DHT22;2661;50.786;12.728;2023-09-30T06:16:35;13.10;1.00
5276;DHT22;2661;50.786;12.728;2023-09-30T06:19:01;13.10;1.00
5276;DHT22;2661;50.786;12.728;2023-09-30T06:21:53;13.10;1.00
5276;DHT22;2661;50.786;12.728;2023-09-30T06:24:20;13.20;1.00
5276;DHT22;2661;50.786;12.728;2023-09-30T06:26:47;13.10;1.00
5276;DHT22;2661;50.786;12.728;2023-09-30T06:29:15;13.20;1.00
5276;DHT22;2661;50.786;12.728;2023-09-30T06:31:41;13.10;1.00
5276;DHT22;2661;50.786;12.728;2023-09-30T06:34:08;13.10;1.00
5276;DHT22;2661;50.786;12.728;2023-09-30T06:36:37;13.10;1.00
5276;DHT22;2661;50.786;12.728;2023-09-30T06:39:04;13.20;1.00
5276;DHT22;2661;50.786;12.728;2023-09-30T06:41:34;13.20;1.00
5276;DHT22;2661;50.786;12.728;2023-09-30T06:44:00;13.20;1.00
5276;DHT22;2661;50.786;12.728;2023-09-30T06:46:27;13.20;1.00
5276;DHT22;2661;50.786;12.728;2023-09-30T06:48:54;13.30;1.00
5276;DHT22;2661;50.786;12.728;2023-09-30T06:51:20;13.40;1.00
5276;DHT22;2661;50.786;12.728;2023-09-30T06:53:47;13.30;1.00
5276;DHT22;2661;50.786;12.728;2023-09-30T06:56:14;13.40;1.00
5276;DHT22;2661;50.786;12.728;2023-09-30T06:58:41;13.40;1.00
5276;DHT22;2661;50.786;12.728;2023-09-30T07:01:08;13.40;1.00
5276;DHT22;2661;50.786;12.728;2023-09-30T07:03:35;13.50;1.00
5276;DHT22;2661;50.786;12.728;2023-09-30T07:06:02;13.50;1.00
5276;DHT22;2661;50.786;12.728;2023-09-30T07:08:29;13.50;1.00
5276;DHT22;2661;50.786;12.728;2023-09-30T07:10:56;13.60;1.00
5276;DHT22;2661;50.786;12.728;2023-09-30T07:13:23;13.70;1.00
5276;DHT22;2661;50.786;12.728;2023-09-30T07:15:49;13.70;1.00
5276;DHT22;2661;50.786;12.728;2023-09-30T07:18:17;13.60;1.00
5276;DHT22;2661;50.786;12.728;2023-09-30T07:20:44;13.70;1.00
5276;DHT22;2661;50.786;12.728;2023-09-30T07:23:11;13.70;1.00
5276;DHT22;2661;50.786;12.728;2023-09-30T07:25:46;13.80;1.00
5276;DHT22;2661;50.786;12.728;2023-09-30T07:28:13;13.80;1.00
5276;DHT22;2661;50.786;12.728;2023-09-30T07:30:39;13.90;1.00
5276;DHT22;2661;50.786;12.728;2023-09-30T07:33:07;13.90;1.00
5276;DHT22;2661;50.786;12.728;2023-09-30T07:35:34;13.90;1.00
5276;DHT22;2661;50.786;12.728;2023-09-30T07:38:01;13.90;1.00
5276;DHT22;2661;50.786;12.728;2023-09-30T07:40:27;14.00;1.00
5276;DHT22;2661;50.786;12.728;2023-09-30T07:42:54;14.00;1.00
5276;DHT22;2661;50.786;12.728;2023-09-30T07:45:21;13.90;1.00
5276;DHT22;2661;50.786;12.728;2023-09-30T07:47:48;14.00;1.00
5276;DHT22;2661;50.786;12.728;2023-09-30T07:50:16;14.00;1.00
5276;DHT22;2661;50.786;12.728;2023-09-30T07:52:42;13.90;1.00
5276;DHT22;2661;50.786;12.728;2023-09-30T07:55:09;13.90;1.00
5276;DHT22;2661;50.786;12.728;2023-09-30T07:57:36;14.00;1.00
5276;DHT22;2661;50.786;12.728;2023-09-30T08:00:03;14.00;1.00
5276;DHT22;2661;50.786;12.728;2023-09-30T08:02:35;14.00;1.00
5276;DHT22;2661;50.786;12.728;2023-09-30T08:05:03;14.10;1.00
5276;DHT22;2661;50.786;12.728;2023-09-30T08:07:32;14.20;1.00
5276;DHT22;2661;50.786;12.728;2023-09-30T08:09:59;14.20;1.00
5276;DHT22;2661;50.786;12.728;2023-09-30T08:12:26;14.30;1.00
5276;DHT22;2661;50.786;12.728;2023-09-30T08:14:52;14.30;1.00
5276;DHT22;2661;50.786;12.728;2023-09-30T08:17:19;14.40;1.00
5276;DHT22;2661;50.786;12.728;2023-09-30T08:19:46;14.40;1.00
5276;DHT22;2661;50.786;12.728;2023-09-30T08:22:14;14.40;99.90
5276;DHT22;2661;50.786;12.728;2023-09-30T08:24:41;14.40;1.00
5276;DHT22;2661;50.786;12.728;2023-09-30T08:27:07;14.40;1.00
5276;DHT22;2661;50.786;12.728;2023-09-30T08:29:34;14.40;1.00
5276;DHT22;2661;50.786;12.728;2023-09-30T08:32:04;14.50;1.00
5276;DHT22;2661;50.786;12.728;2023-09-30T08:34:31;14.60;1.00
5276;DHT22;2661;50.786;12.728;2023-09-30T08:36:57;14.60;99.90
5276;DHT22;2661;50.786;12.728;2023-09-30T08:39:25;14.60;1.00
5276;DHT22;2661;50.786;12.728;2023-09-30T08:41:52;14.70;99.90
5276;DHT22;2661;50.786;12.728;2023-09-30T08:44:19;14.70;1.00
5276;DHT22;2661;50.786;12.728;2023-09-30T08:46:45;14.80;99.90
5276;DHT22;2661;50.786;12.728;2023-09-30T08:49:12;14.80;1.00
5276;DHT22;2661;50.786;12.728;2023-09-30T08:51:40;14.70;99.90
5276;DHT22;2661;50.786;12.728;2023-09-30T08:54:07;14.70;99.90
5276;DHT22;2661;50.786;12.728;2023-09-30T08:56:34;14.70;99.90
5276;DHT22;2661;50.786;12.728;2023-09-30T08:59:01;14.70;99.90
5276;DHT22;2661;50.786;12.728;2023-09-30T09:01:29;14.70;1.00
5276;DHT22;2661;50.786;12.728;2023-09-30T09:03:56;14.70;99.90
5276;DHT22;2661;50.786;12.728;2023-09-30T09:06:24;14.70;99.90
5276;DHT22;2661;50.786;12.728;2023-09-30T09:08:51;14.70;99.90
5276;DHT22;2661;50.786;12.728;2023-09-30T09:11:18;14.70;1.00
5276;DHT22;2661;50.786;12.728;2023-09-30T09:13:51;14.80;1.00
5276;DHT22;2661;50.786;12.728;2023-09-30T09:16:23;14.90;1.00
5276;DHT22;2661;50.786;12.728;2023-09-30T09:18:50;15.00;1.00
5276;DHT22;2661;50.786;12.728;2023-09-30T09:21:18;15.20;1.00
5276;DHT22;2661;50.786;12.728;2023-09-30T09:23:47;15.20;1.00
5276;DHT22;2661;50.786;12.728;2023-09-30T09:26:27;15.20;1.00
5276;DHT22;2661;50.786;12.728;2023-09-30T09:28:57;15.30;1.00
5276;DHT22;2661;50.786;12.728;2023-09-30T09:31:28;15.20;99.90
5276;DHT22;2661;50.786;12.728;2023-09-30T09:33:55;15.10;1.00
5276;DHT22;2661;50.786;12.728;2023-09-30T09:36:22;15.00;1.00
5276;DHT22;2661;50.786;12.728;2023-09-30T09:39:04;15.00;1.00
5276;DHT22;2661;50.786;12.728;2023-09-30T09:41:30;15.00;1.00
5276;DHT22;2661;50.786;12.728;2023-09-30T09:43:57;15.00;1.00
5276;DHT22;2661;50.786;12.728;2023-09-30T09:46:25;14.90;1.00
5276;DHT22;2661;50.786;12.728;2023-09-30T09:48:53;15.00;1.00
5276;DHT22;2661;50.786;12.728;2023-09-30T09:51:21;15.00;1.00
5276;DHT22;2661;50.786;12.728;2023-09-30T09:53:47;15.00;1.00
5276;DHT22;2661;50.786;12.728;2023-09-30T09:56:15;14.90;1.00
5276;DHT22;2661;50.786;12.728;2023-09-30T09:58:43;14.90;1.00
5276;DHT22;2661;50.786;12.728;2023-09-30T10:01:10;15.00;1.00
5276;DHT22;2661;50.786;12.728;2023-09-30T10:03:38;15.00;1.00
5276;DHT22;2661;50.786;12.728;2023-09-30T10:06:05;15.10;1.00
5276;DHT22;2661;50.786;12.728;2023-09-30T10:08:33;15.20;1.00
5276;DHT22;2661;50.786;12.728;2023-09-30T10:11:01;15.30;1.00
5276;DHT22;2661;50.786;12.728;2023-09-30T10:19:15;15.50;1.00
5276;DHT22;2661;50.786;12.728;2023-09-30T10:24:28;15.70;1.00
5276;DHT22;2661;50.786;12.728;2023-09-30T10:27:27;15.80;1.00
5276;DHT22;2661;50.786;12.728;2023-09-30T10:29:42;16.00;1.00
5276;DHT22;2661;50.786;12.728;2023-09-30T10:32:09;16.20;1.00
5276;DHT22;2661;50.786;12.728;2023-09-30T10:34:36;16.20;1.00
5276;DHT22;2661;50.786;12.728;2023-09-30T10:37:23;16.30;1.00
5276;DHT22;2661;50.786;12.728;2023-09-30T10:39:57;16.40;1.00
5276;DHT22;2661;50.786;12.728;2023-09-30T10:42:44;16.40;1.00
5276;DHT22;2661;50.786;12.728;2023-09-30T10:45:58;16.50;1.00
5276;DHT22;2661;50.786;12.728;2023-09-30T10:48:20;16.60;1.00
5276;DHT22;2661;50.786;12.728;2023-09-30T10:50:49;16.60;99.90
5276;DHT22;2661;50.786;12.728;2023-09-30T10:53:20;16.60;1.00
5276;DHT22;2661;50.786;12.728;2023-09-30T10:55:50;16.40;1.00
5276;DHT22;2661;50.786;12.728;2023-09-30T10:58:20;16.20;1.00
5276;DHT22;2661;50.786;12.728;2023-09-30T11:00:51;16.20;1.00
5276;DHT22;2661;50.786;12.728;2023-09-30T11:03:21;16.10;1.00
5276;DHT22;2661;50.786;12.728;2023-09-30T11:05:48;16.00;1.00
5276;DHT22;2661;50.786;12.728;2023-09-30T11:08:35;16.00;1.00
5276;DHT22;2661;50.786;12.728;2023-09-30T11:11:04;16.00;1.00
5276;DHT22;2661;50.786;12.728;2023-09-30T11:13:32;16.10;1.00
5276;DHT22;2661;50.786;12.728;2023-09-30T11:16:02;16.00;1.00
5276;DHT22;2661;50.786;12.728;2023-09-30T11:18:31;16.00;1.00
5276;DHT22;2661;50.786;12.728;2023-09-30T11:21:05;16.00;1.00
5276;DHT22;2661;50.786;12.728;2023-09-30T11:23:32;15.90;1.00
5276;DHT22;2661;50.786;12.728;2023-09-30T11:25:58;15.80;1.00
5276;DHT22;2661;50.786;12.728;2023-09-30T11:28:34;15.80;1.00
5276;DHT22;2661;50.786;12.728;2023-09-30T11:31:02;15.80;1.00
5276;DHT22;2661;50.786;12.728;2023-09-30T11:33:29;15.90;1.00
5276;DHT22;2661;50.786;12.728;2023-09-30T11:35:57;15.90;1.00
5276;DHT22;2661;50.786;12.728;2023-09-30T11:38:25;15.90;1.00
5276;DHT22;2661;50.786;12.728;2023-09-30T11:41:02;15.90;1.00
5276;DHT22;2661;50.786;12.728;2023-09-30T11:43:30;15.90;1.00
5276;DHT22;2661;50.786;12.728;2023-09-30T11:46:04;16.00;1.00
5276;DHT22;2661;50.786;12.728;2023-09-30T11:48:31;16.00;1.00
5276;DHT22;2661;50.786;12.728;2023-09-30T11:50:58;16.00;1.00
5276;DHT22;2661;50.786;12.728;2023-09-30T11:53:26;15.90;1.00
5276;DHT22;2661;50.786;12.728;2023-09-30T11:55:53;15.80;1.00
5276;DHT22;2661;50.786;12.728;2023-09-30T11:58:22;15.80;1.00
5276;DHT22;2661;50.786;12.728;2023-09-30T12:00:49;15.80;99.90
5276;DHT22;2661;50.786;12.728;2023-09-30T12:03:17;15.80;1.00
5276;DHT22;2661;50.786;12.728;2023-09-30T12:05:44;15.70;1.00
5276;DHT22;2661;50.786;12.728;2023-09-30T12:08:12;15.70;1.00
5276;DHT22;2661;50.786;12.728;2023-09-30T12:10:39;15.70;1.00
5276;DHT22;2661;50.786;12.728;2023-09-30T12:13:05;15.70;1.00
5276;DHT22;2661;50.786;12.728;2023-09-30T12:15:32;15.70;1.00
5276;DHT22;2661;50.786;12.728;2023-09-30T12:17:59;15.80;1.00
5276;DHT22;2661;50.786;12.728;2023-09-30T12:20:25;15.80;1.00
5276;DHT22;2661;50.786;12.728;2023-09-30T12:22:52;15.90;1.00
5276;DHT22;2661;50.786;12.728;2023-09-30T12:25:20;15.90;1.00
5276;DHT22;2661;50.786;12.728;2023-09-30T12:27:48;15.80;1.00
5276;DHT22;2661;50.786;12.728;2023-09-30T12:30:15;15.80;1.00
5276;DHT22;2661;50.786;12.728;2023-09-30T12:32:41;15.90;1.00
5276;DHT22;2661;50.786;12.728;2023-09-30T12:35:08;16.00;1.00
5276;DHT22;2661;50.786;12.728;2023-09-30T12:37:35;16.00;1.00
5276;DHT22;2661;50.786;12.728;2023-09-30T12:40:01;16.10;1.00
5276;DHT22;2661;50.786;12.728;2023-09-30T12:42:29;16.10;1.00
5276;DHT22;2661;50.786;12.728;2023-09-30T12:44:56;16.10;1.00
5276;DHT22;2661;50.786;12.728;2023-09-30T12:47:22;16.10;1.00
5276;DHT22;2661;50.786;12.728;2023-09-30T12:49:49;16.10;1.00
5276;DHT22;2661;50.786;12.728;2023-09-30T12:52:16;16.10;1.00
5276;DHT22;2661;50.786;12.728;2023-09-30T12:54:42;16.10;1.00
5276;DHT22;2661;50.786;12.728;2023-09-30T12:57:09;16.10;1.00
5276;DHT22;2661;50.786;12.728;2023-09-30T12:59:39;16.10;1.00
5276;DHT22;2661;50.786;12.728;2023-09-30T13:02:05;16.00;1.00
5276;DHT22;2661;50.786;12.728;2023-09-30T13:04:32;16.10;1.00
5276;DHT22;2661;50.786;12.728;2023-09-30T13:06:59;16.10;1.00
5276;DHT22;2661;50.786;12.728;2023-09-30T13:09:25;16.10;1.00
5276;DHT22;2661;50.786;12.728;2023-09-30T13:11:52;16.10;1.00
5276;DHT22;2661;50.786;12.728;2023-09-30T13:14:19;16.10;1.00
5276;DHT22;2661;50.786;12.728;2023-09-30T13:16:45;16.10;1.00
5276;DHT22;2661;50.786;12.728;2023-09-30T13:19:12;16.10;1.00
5276;DHT22;2661;50.786;12.728;2023-09-30T13:21:39;16.10;1.00
5276;DHT22;2661;50.786;12.728;2023-09-30T13:24:08;16.10;1.00
5276;DHT22;2661;50.786;12.728;2023-09-30T13:26:36;16.20;1.00
5276;DHT22;2661;50.786;12.728;2023-09-30T13:29:03;16.40;1.00
5276;DHT22;2661;50.786;12.728;2023-09-30T13:31:31;16.40;1.00
5276;DHT22;2661;50.786;12.728;2023-09-30T13:33:59;16.40;1.00
5276;DHT22;2661;50.786;12.728;2023-09-30T13:36:25;16.40;1.00
5276;DHT22;2661;50.786;12.728;2023-09-30T13:38:52;16.40;1.00
5276;DHT22;2661;50.786;12.728;2023-09-30T13:41:19;16.40;1.00
5276;DHT22;2661;50.786;12.728;2023-09-30T13:43:45;16.40;1.00
5276;DHT22;2661;50.786;12.728;2023-09-30T13:46:12;16.30;1.00
5276;DHT22;2661;50.786;12.728;2023-09-30T13:48:39;16.30;1.00
5276;DHT22;2661;50.786;12.728;2023-09-30T13:51:06;16.20;1.00
5276;DHT22;2661;50.786;12.728;2023-09-30T13:53:32;16.20;1.00
5276;DHT22;2661;50.786;12.728;2023-09-30T13:55:59;16.20;1.00
5276;DHT22;2661;50.786;12.728;2023-09-30T13:58:26;16.10;1.00
5276;DHT22;2661;50.786;12.728;2023-09-30T14:00:53;16.10;1.00
5276;DHT22;2661;50.786;12.728;2023-09-30T14:03:19;16.20;1.00
5276;DHT22;2661;50.786;12.728;2023-09-30T14:05:46;16.20;1.00
5276;DHT22;2661;50.786;12.728;2023-09-30T14:08:13;16.20;1.00
5276;DHT22;2661;50.786;12.728;2023-09-30T14:10:40;16.20;1.00
5276;DHT22;2661;50.786;12.728;2023-09-30T14:13:07;16.20;1.00
5276;DHT22;2661;50.786;12.728;2023-09-30T14:15:34;16.20;1.00
5276;DHT22;2661;50.786;12.728;2023-09-30T14:18:00;16.20;1.00
5276;DHT22;2661;50.786;12.728;2023-09-30T14:20:28;16.20;1.00
5276;DHT22;2661;50.786;12.728;2023-09-30T14:22:55;16.20;1.00
5276;DHT22;2661;50.786;12.728;2023-09-30T14:25:22;16.20;1.00
5276;DHT22;2661;50.786;12.728;2023-09-30T14:27:48;16.20;1.00
5276;DHT22;2661;50.786;12.728;2023-09-30T14:30:15;16.20;1.00
5276;DHT22;2661;50.786;12.728;2023-09-30T14:32:42;16.20;1.00
5276;DHT22;2661;50.786;12.728;2023-09-30T14:35:09;16.20;1.00
5276;DHT22;2661;50.786;12.728;2023-09-30T14:37:36;16.20;1.00
5276;DHT22;2661;50.786;12.728;2023-09-30T14:40:03;16.20;1.00
5276;DHT22;2661;50.786;12.728;2023-09-30T14:42:32;16.20;1.00
5276;DHT22;2661;50.786;12.728;2023-09-30T14:44:59;16.20;1.00
5276;DHT22;2661;50.786;12.728;2023-09-30T14:47:25;16.20;1.00
5276;DHT22;2661;50.786;12.728;2023-09-30T14:49:52;16.20;1.00
5276;DHT22;2661;50.786;12.728;2023-09-30T14:52:19;16.20;1.00
5276;DHT22;2661;50.786;12.728;2023-09-30T14:54:46;16.20;1.00
5276;DHT22;2661;50.786;12.728;2023-09-30T14:57:12;16.20;1.00
5276;DHT22;2661;50.786;12.728;2023-09-30T14:59:42;16.10;1.00
5276;DHT22;2661;50.786;12.728;2023-09-30T15:02:08;16.10;1.00
5276;DHT22;2661;50.786;12.728;2023-09-30T15:04:35;16.10;1.00
5276;DHT22;2661;50.786;12.728;2023-09-30T15:07:02;16.00;1.00
5276;DHT22;2661;50.786;12.728;2023-09-30T15:09:29;16.00;1.00
5276;DHT22;2661;50.786;12.728;2023-09-30T15:11:55;15.90;1.00
5276;DHT22;2661;50.786;12.728;2023-09-30T15:14:22;16.00;99.90
5276;DHT22;2661;50.786;12.728;2023-09-30T15:16:49;16.00;1.00
5276;DHT22;2661;50.786;12.728;2023-09-30T15:19:16;16.10;1.00
5276;DHT22;2661;50.786;12.728;2023-09-30T15:21:43;16.00;1.00
5276;DHT22;2661;50.786;12.728;2023-09-30T15:24:10;16.00;1.00
5276;DHT22;2661;50.786;12.728;2023-09-30T15:26:37;16.00;1.00
5276;DHT22;2661;50.786;12.728;2023-09-30T15:29:03;15.90;1.00
5276;DHT22;2661;50.786;12.728;2023-09-30T15:31:30;15.90;1.00
5276;DHT22;2661;50.786;12.728;2023-09-30T15:33:57;15.90;1.00
5276;DHT22;2661;50.786;12.728;2023-09-30T15:36:24;15.90;1.00
5276;DHT22;2661;50.786;12.728;2023-09-30T15:38:52;15.80;1.00
5276;DHT22;2661;50.786;12.728;2023-09-30T15:41:22;15.80;1.00
5276;DHT22;2661;50.786;12.728;2023-09-30T15:43:49;15.80;1.00
5276;DHT22;2661;50.786;12.728;2023-09-30T15:46:16;15.80;1.00
5276;DHT22;2661;50.786;12.728;2023-09-30T15:48:43;15.80;1.00
5276;DHT22;2661;50.786;12.728;2023-09-30T15:51:10;15.80;1.00
5276;DHT22;2661;50.786;12.728;2023-09-30T15:53:36;15.70;1.00
5276;DHT22;2661;50.786;12.728;2023-09-30T15:56:04;15.70;1.00
5276;DHT22;2661;50.786;12.728;2023-09-30T15:58:31;15.70;1.00
5276;DHT22;2661;50.786;12.728;2023-09-30T16:00:58;15.60;1.00
5276;DHT22;2661;50.786;12.728;2023-09-30T16:03:25;15.60;1.00
5276;DHT22;2661;50.786;12.728;2023-09-30T16:05:52;15.60;1.00
5276;DHT22;2661;50.786;12.728;2023-09-30T16:08:18;15.50;1.00
5276;DHT22;2661;50.786;12.728;2023-09-30T16:10:45;15.50;1.00
5276;DHT22;2661;50.786;12.728;2023-09-30T16:13:12;15.40;1.00